createdAt,value
2018-03-27T00:00:56.461Z,73.86
2018-03-27T00:03:24.954Z,73.81
2018-03-27T00:05:53.497Z,73.72
2018-03-27T00:08:21.988Z,73.71
2018-03-27T00:10:50.501Z,73.63
2018-03-27T00:13:19.030Z,73.64
2018-03-27T00:15:47.515Z,73.81
2018-03-27T00:18:15.990Z,74.07
2018-03-27T00:20:44.521Z,74.16
2018-03-27T00:23:13.009Z,74.00
2018-03-27T00:25:41.548Z,74.03
2018-03-27T00:28:21.654Z,73.75
2018-03-27T00:31:07.726Z,74.62
2018-03-27T00:33:53.706Z,74.36
2018-03-27T00:36:39.850Z,74.21
2018-03-27T00:39:25.854Z,74.31
2018-03-27T00:44:58.977Z,74.22
2018-03-27T00:47:27.292Z,74.41
2018-03-27T00:49:55.483Z,74.38
2018-03-27T00:52:24.037Z,73.89
2018-03-27T00:54:52.573Z,73.54
2018-03-27T00:57:21.094Z,73.57
2018-03-27T00:59:49.581Z,73.13
2018-03-27T01:02:18.057Z,73.11
2018-03-27T01:04:46.602Z,73.80
2018-03-27T01:07:15.082Z,74.00
2018-03-27T01:09:43.574Z,74.54
2018-03-27T01:12:12.114Z,73.95
2018-03-27T01:14:40.637Z,74.08
2018-03-27T01:17:09.149Z,73.87
2018-03-27T01:19:37.689Z,73.80
2018-03-27T01:22:06.241Z,73.83
2018-03-27T01:24:34.774Z,73.61
2018-03-27T01:27:03.285Z,73.62
2018-03-27T01:29:31.773Z,73.76
2018-03-27T01:32:00.289Z,73.62
2018-03-27T01:34:28.778Z,73.70
2018-03-27T01:36:57.285Z,73.55
2018-03-27T01:39:25.778Z,73.77
2018-03-27T01:41:54.298Z,73.80
2018-03-27T01:44:22.781Z,73.86
2018-03-27T01:46:51.304Z,73.80
2018-03-27T01:49:19.781Z,73.64
2018-03-27T01:51:48.290Z,73.56
2018-03-27T01:54:16.813Z,73.31
2018-03-27T01:56:45.300Z,73.68
2018-03-27T01:59:13.830Z,73.62
2018-03-27T02:01:42.325Z,73.52
2018-03-27T02:04:10.858Z,73.96
2018-03-27T02:06:39.379Z,73.72
2018-03-27T02:09:07.858Z,74.18
2018-03-27T02:11:41.892Z,74.46
2018-03-27T02:14:15.970Z,74.50
2018-03-27T02:16:50.079Z,74.57
2018-03-27T02:19:24.030Z,74.43
2018-03-27T02:21:51.945Z,74.72
2018-03-27T02:24:20.505Z,74.69
2018-03-27T02:26:48.985Z,74.27
2018-03-27T02:29:17.497Z,74.50
2018-03-27T02:31:45.978Z,74.76
2018-03-27T02:34:14.502Z,74.50
2018-03-27T02:36:43.085Z,73.67
2018-03-27T02:39:11.566Z,73.35
2018-03-27T02:41:40.112Z,73.62
2018-03-27T02:44:08.597Z,74.09
2018-03-27T02:46:37.111Z,74.63
2018-03-27T02:49:05.634Z,74.43
2018-03-27T02:51:34.110Z,74.66
2018-03-27T02:54:02.671Z,74.24
2018-03-27T02:56:31.202Z,73.79
2018-03-27T02:58:59.733Z,73.64
2018-03-27T03:01:28.342Z,73.63
2018-03-27T03:03:56.862Z,73.61
2018-03-27T03:06:25.379Z,74.02
2018-03-27T03:08:53.902Z,74.69
2018-03-27T03:11:22.418Z,74.65
2018-03-27T03:13:50.958Z,74.61
2018-03-27T03:16:19.489Z,74.70
2018-03-27T03:18:48.061Z,75.27
2018-03-27T03:21:16.548Z,75.13
2018-03-27T03:23:45.066Z,75.22
2018-03-27T03:26:13.570Z,75.06
2018-03-27T03:28:42.091Z,75.50
2018-03-27T03:31:10.578Z,75.29
2018-03-27T03:33:39.102Z,75.38
2018-03-27T03:36:07.642Z,75.59
2018-03-27T03:38:36.122Z,75.65
2018-03-27T03:41:04.662Z,75.72
2018-03-27T03:43:33.192Z,75.78
2018-03-27T03:46:01.704Z,75.90
2018-03-27T03:48:30.226Z,75.77
2018-03-27T03:50:58.718Z,75.78
2018-03-27T03:53:27.202Z,75.43
2018-03-27T03:55:55.766Z,75.30
2018-03-27T03:58:24.251Z,75.45
2018-03-27T04:00:52.762Z,76.59
2018-03-27T04:03:21.280Z,77.66
2018-03-27T04:05:49.797Z,77.39
2018-03-27T04:08:18.315Z,76.58
2018-03-27T04:10:46.847Z,76.84
2018-03-27T04:13:15.330Z,76.46
2018-03-27T04:15:43.854Z,76.64
2018-03-27T04:18:12.370Z,76.29
2018-03-27T04:20:40.869Z,76.71
2018-03-27T04:23:09.378Z,76.71
2018-03-27T04:25:37.870Z,76.48
2018-03-27T04:28:06.386Z,76.66
2018-03-27T04:30:34.863Z,76.52
2018-03-27T04:33:03.382Z,76.10
2018-03-27T04:35:31.898Z,76.00
2018-03-27T04:38:00.374Z,75.88
2018-03-27T04:40:28.901Z,75.88
2018-03-27T04:42:57.422Z,75.52
2018-03-27T04:45:25.916Z,75.53
2018-03-27T04:47:54.435Z,75.87
2018-03-27T04:50:22.954Z,75.99
2018-03-27T04:52:51.425Z,76.01
2018-03-27T04:55:19.946Z,76.12
2018-03-27T04:57:48.438Z,75.94
2018-03-27T05:00:16.977Z,75.56
2018-03-27T05:02:45.458Z,75.51
2018-03-27T05:05:14.006Z,75.56
2018-03-27T05:07:42.538Z,75.59
2018-03-27T05:10:11.036Z,75.27
2018-03-27T05:12:39.589Z,75.26
2018-03-27T05:15:08.066Z,74.98
2018-03-27T05:17:36.577Z,75.11
2018-03-27T05:20:05.075Z,75.09
2018-03-27T05:22:33.671Z,74.80
2018-03-27T05:25:02.150Z,74.62
2018-03-27T05:27:30.668Z,74.30
2018-03-27T05:29:59.145Z,74.24
2018-03-27T05:32:27.662Z,73.85
2018-03-27T05:34:56.194Z,73.49
2018-03-27T05:37:24.670Z,73.67
2018-03-27T05:39:53.233Z,73.60
2018-03-27T05:42:21.912Z,73.75
2018-03-27T05:44:50.402Z,73.44
2018-03-27T05:47:18.919Z,73.37
2018-03-27T05:49:47.549Z,73.52
2018-03-27T05:52:16.046Z,73.57
2018-03-27T05:54:44.570Z,73.02
2018-03-27T05:57:13.134Z,72.70
2018-03-27T05:59:41.654Z,72.89
2018-03-27T06:02:10.154Z,72.85
2018-03-27T06:04:38.674Z,72.76
2018-03-27T06:07:07.202Z,72.40
2018-03-27T06:09:35.697Z,72.21
2018-03-27T06:12:04.241Z,71.75
2018-03-27T06:14:32.846Z,71.66
2018-03-27T06:17:01.414Z,71.75
2018-03-27T06:19:30.016Z,71.30
2018-03-27T06:21:58.667Z,71.35
2018-03-27T06:24:27.160Z,72.05
2018-03-27T06:26:55.683Z,71.36
2018-03-27T06:29:24.233Z,71.75
2018-03-27T06:31:52.756Z,70.44
2018-03-27T06:34:21.262Z,70.56
2018-03-27T06:36:49.798Z,70.95
2018-03-27T06:39:18.303Z,70.99
2018-03-27T06:41:46.834Z,69.64
2018-03-27T06:44:15.393Z,69.46
2018-03-27T06:46:43.909Z,68.85
2018-03-27T06:49:12.445Z,69.10
2018-03-27T06:51:40.953Z,69.55
2018-03-27T06:54:09.486Z,69.73
2018-03-27T06:56:38.002Z,69.87
2018-03-27T06:59:06.609Z,68.93
2018-03-27T07:01:35.139Z,69.54
2018-03-27T07:04:03.641Z,70.09
2018-03-27T07:06:32.210Z,69.75
2018-03-27T07:09:00.767Z,69.50
2018-03-27T07:11:29.279Z,68.75
2018-03-27T07:13:57.808Z,69.10
2018-03-27T07:16:26.344Z,68.17
2018-03-27T07:18:54.944Z,67.36
2018-03-27T07:21:23.510Z,67.38
2018-03-27T07:23:52.034Z,67.49
2018-03-27T07:26:20.593Z,67.93
2018-03-27T07:28:49.083Z,67.54
2018-03-27T07:31:17.633Z,68.33
2018-03-27T07:33:46.158Z,67.49
2018-03-27T07:36:14.782Z,67.39
2018-03-27T07:38:43.265Z,66.24
2018-03-27T07:41:11.758Z,65.92
2018-03-27T07:43:40.279Z,65.88
2018-03-27T07:46:08.807Z,66.02
2018-03-27T07:48:37.386Z,66.04
2018-03-27T07:51:05.869Z,65.60
2018-03-27T07:53:34.354Z,65.55
2018-03-27T07:56:02.879Z,65.27
2018-03-27T07:58:31.387Z,65.98
2018-03-27T08:00:59.914Z,65.87
2018-03-27T08:03:28.408Z,66.40
2018-03-27T08:05:56.926Z,66.24
2018-03-27T08:08:25.498Z,65.95
2018-03-27T08:10:54.068Z,65.77
2018-03-27T08:13:22.566Z,66.17
2018-03-27T08:15:51.085Z,66.25
2018-03-27T08:18:19.654Z,65.80
2018-03-27T08:20:48.192Z,66.51
2018-03-27T08:23:16.762Z,66.01
2018-03-27T08:25:45.280Z,64.96
2018-03-27T08:28:13.809Z,64.99
2018-03-27T08:30:42.311Z,65.39
2018-03-27T08:33:10.805Z,64.51
2018-03-27T08:35:39.326Z,64.38
2018-03-27T08:38:07.822Z,64.33
2018-03-27T08:40:36.354Z,64.32
2018-03-27T08:43:04.850Z,63.69
2018-03-27T08:45:33.366Z,63.84
2018-03-27T08:48:01.959Z,63.54
2018-03-27T08:50:30.502Z,63.41
2018-03-27T08:52:58.989Z,62.71
2018-03-27T08:55:27.538Z,62.83
2018-03-27T08:57:56.045Z,63.06
2018-03-27T09:00:24.617Z,63.16
2018-03-27T09:02:53.134Z,62.43
2018-03-27T09:05:21.692Z,62.22
2018-03-27T09:07:50.223Z,62.25
2018-03-27T09:10:18.724Z,62.30
2018-03-27T09:12:47.254Z,62.23
2018-03-27T09:15:15.799Z,62.06
2018-03-27T09:17:44.313Z,61.66
2018-03-27T09:20:12.818Z,61.82
2018-03-27T09:22:41.482Z,61.79
2018-03-27T09:25:10.040Z,61.87
2018-03-27T09:27:38.570Z,61.89
2018-03-27T09:30:07.057Z,61.57
2018-03-27T09:32:35.594Z,61.55
2018-03-27T09:35:04.202Z,61.42
2018-03-27T09:37:32.712Z,60.78
2018-03-27T09:40:01.254Z,60.53
2018-03-27T09:42:29.789Z,60.52
2018-03-27T09:44:58.322Z,58.89
2018-03-27T09:47:26.822Z,58.46
2018-03-27T09:49:55.345Z,58.63
2018-03-27T09:52:23.826Z,58.38
2018-03-27T09:54:52.323Z,59.42
2018-03-27T09:57:20.814Z,58.72
2018-03-27T09:59:49.320Z,57.44
2018-03-27T10:02:17.859Z,57.77
2018-03-27T10:04:46.346Z,57.64
2018-03-27T10:07:14.990Z,58.10
2018-03-27T10:09:43.482Z,57.50
2018-03-27T10:12:11.985Z,58.01
2018-03-27T10:14:40.513Z,56.77
2018-03-27T10:17:09.007Z,57.98
2018-03-27T10:19:37.541Z,56.36
2018-03-27T10:22:06.110Z,56.52
2018-03-27T10:24:34.647Z,55.69
2018-03-27T10:27:03.175Z,55.18
2018-03-27T10:29:31.725Z,56.69
2018-03-27T10:32:00.241Z,55.14
2018-03-27T10:34:28.750Z,55.97
2018-03-27T10:36:57.282Z,54.82
2018-03-27T10:39:25.782Z,54.16
2018-03-27T10:41:54.314Z,53.69
2018-03-27T10:44:22.830Z,52.12
2018-03-27T10:46:51.370Z,53.75
2018-03-27T10:49:19.875Z,52.72
2018-03-27T10:51:48.392Z,52.74
2018-03-27T10:54:16.937Z,52.20
2018-03-27T10:56:45.462Z,52.03
2018-03-27T10:59:14.003Z,51.64
2018-03-27T11:01:42.520Z,52.74
2018-03-27T11:04:11.070Z,52.29
2018-03-27T11:06:39.614Z,53.20
2018-03-27T11:09:08.383Z,52.85
2018-03-27T11:11:36.965Z,52.85
2018-03-27T11:14:05.458Z,54.24
2018-03-27T11:16:33.982Z,53.94
2018-03-27T11:19:02.635Z,54.62
2018-03-27T11:21:31.124Z,55.95
2018-03-27T11:23:59.662Z,55.74
2018-03-27T11:26:28.194Z,55.44
2018-03-27T11:28:56.735Z,56.34
2018-03-27T11:31:25.217Z,56.11
2018-03-27T11:33:53.707Z,56.93
2018-03-27T11:36:22.239Z,56.51
2018-03-27T11:38:50.847Z,56.74
2018-03-27T11:41:19.342Z,56.98
2018-03-27T11:43:47.888Z,57.13
2018-03-27T11:46:16.382Z,57.72
2018-03-27T11:48:44.949Z,59.03
2018-03-27T11:51:13.494Z,59.85
2018-03-27T11:53:42.084Z,61.40
2018-03-27T11:56:10.632Z,61.09
2018-03-27T11:58:39.135Z,61.09
2018-03-27T12:01:07.689Z,61.13
2018-03-27T12:03:36.217Z,61.09
2018-03-27T12:06:04.801Z,61.81
2018-03-27T12:08:33.297Z,61.96
2018-03-27T12:11:01.914Z,62.28
2018-03-27T12:13:30.402Z,61.71
2018-03-27T12:15:58.942Z,62.04
2018-03-27T12:18:27.495Z,62.45
2018-03-27T12:20:56.034Z,62.43
2018-03-27T12:23:24.575Z,62.96
2018-03-27T12:25:53.114Z,63.41
2018-03-27T12:28:21.615Z,63.97
2018-03-27T12:30:50.178Z,64.54
2018-03-27T12:33:18.690Z,64.65
2018-03-27T12:35:47.220Z,65.80
2018-03-27T12:38:15.691Z,64.98
2018-03-27T12:40:44.329Z,63.89
2018-03-27T12:43:12.831Z,64.81
2018-03-27T12:45:41.340Z,66.13
2018-03-27T12:48:09.806Z,66.56
2018-03-27T12:50:38.310Z,65.66
2018-03-27T12:53:06.930Z,66.36
2018-03-27T12:55:35.440Z,66.53
2018-03-27T12:58:03.948Z,66.02
2018-03-27T13:00:32.460Z,66.61
2018-03-27T13:03:01.006Z,66.93
2018-03-27T13:05:29.502Z,65.74
2018-03-27T13:07:58.026Z,65.33
2018-03-27T13:10:26.554Z,64.24
2018-03-27T13:12:55.026Z,63.07
2018-03-27T13:15:23.522Z,63.93
2018-03-27T13:17:51.989Z,64.30
2018-03-27T13:20:20.498Z,64.38
2018-03-27T13:22:49.002Z,64.29
2018-03-27T13:25:17.470Z,64.59
2018-03-27T13:27:45.982Z,64.14
2018-03-27T13:30:14.446Z,64.25
2018-03-27T13:32:42.967Z,63.91
2018-03-27T13:35:11.467Z,62.45
2018-03-27T13:37:39.950Z,62.61
2018-03-27T13:40:08.478Z,62.01
2018-03-27T13:42:37.010Z,62.53
2018-03-27T13:45:05.564Z,61.73
2018-03-27T13:47:34.114Z,62.09
2018-03-27T13:50:02.638Z,62.28
2018-03-27T13:52:31.156Z,62.21
2018-03-27T13:54:59.682Z,62.23
2018-03-27T13:57:28.211Z,62.42
2018-03-27T13:59:56.718Z,60.83
2018-03-27T14:02:25.219Z,60.57
2018-03-27T14:04:53.695Z,60.28
2018-03-27T14:07:22.237Z,60.20
2018-03-27T14:09:50.700Z,59.73
2018-03-27T14:12:19.220Z,58.93
2018-03-27T14:14:47.809Z,57.42
2018-03-27T14:17:16.310Z,58.06
2018-03-27T14:19:44.826Z,57.44
2018-03-27T14:22:13.339Z,56.96
2018-03-27T14:24:41.850Z,57.12
2018-03-27T14:27:10.305Z,56.44
2018-03-27T14:29:38.789Z,56.88
2018-03-27T14:32:07.285Z,56.14
2018-03-27T14:34:35.774Z,54.88
2018-03-27T14:37:04.267Z,55.53
2018-03-27T14:39:32.718Z,55.05
2018-03-27T14:42:01.207Z,54.51
2018-03-27T14:44:29.717Z,53.75
2018-03-27T14:46:58.229Z,53.30
2018-03-27T14:49:26.686Z,53.96
2018-03-27T14:51:55.181Z,54.81
2018-03-27T14:54:23.716Z,54.61
2018-03-27T14:56:52.171Z,54.81
2018-03-27T14:59:20.667Z,54.57
2018-03-27T15:01:49.177Z,55.58
2018-03-27T15:04:18.610Z,54.84
2018-03-27T15:06:47.054Z,55.08
2018-03-27T15:09:15.510Z,55.67
2018-03-27T15:11:44.002Z,55.95
2018-03-27T15:14:12.464Z,56.08
2018-03-27T15:16:40.949Z,55.15
2018-03-27T15:19:09.442Z,55.75
2018-03-27T15:21:37.933Z,56.02
2018-03-27T15:24:06.398Z,56.17
2018-03-27T15:26:34.907Z,55.76
2018-03-27T15:29:03.417Z,56.09
2018-03-27T15:31:31.918Z,55.87
2018-03-27T15:34:00.421Z,56.35
2018-03-27T15:36:28.889Z,56.42
2018-03-27T15:38:57.350Z,56.56
2018-03-27T15:41:25.846Z,56.92
2018-03-27T15:43:54.346Z,57.12
2018-03-27T15:46:22.833Z,57.05
2018-03-27T15:48:51.314Z,57.38
2018-03-27T15:51:19.818Z,57.05
2018-03-27T15:53:48.266Z,57.30
2018-03-27T15:56:16.764Z,56.66
2018-03-27T15:58:45.288Z,57.56
2018-03-27T16:01:13.746Z,57.67
2018-03-27T16:03:42.237Z,58.00
2018-03-27T16:06:10.719Z,57.75
2018-03-27T16:08:39.246Z,58.27
2018-03-27T16:11:07.698Z,58.27
2018-03-27T16:13:36.189Z,57.99
2018-03-27T16:16:04.639Z,57.93
2018-03-27T16:18:33.151Z,58.49
2018-03-27T16:21:01.638Z,58.17
2018-03-27T16:23:30.087Z,58.51
2018-03-27T16:25:58.590Z,58.48
2018-03-27T16:28:27.090Z,58.21
2018-03-27T16:30:55.577Z,58.80
2018-03-27T16:33:24.105Z,59.07
2018-03-27T16:35:52.603Z,58.95
2018-03-27T16:38:21.092Z,59.05
2018-03-27T16:40:49.610Z,59.17
2018-03-27T16:43:18.062Z,58.77
2018-03-27T16:45:46.546Z,59.21
2018-03-27T16:48:15.006Z,59.34
2018-03-27T16:50:43.541Z,59.35
2018-03-27T16:53:12.006Z,59.35
2018-03-27T16:55:40.490Z,59.53
2018-03-27T16:58:08.945Z,59.67
2018-03-27T17:00:37.434Z,59.36
2018-03-27T17:03:05.926Z,60.34
2018-03-27T17:05:34.383Z,59.62
2018-03-27T17:08:02.890Z,59.67
2018-03-27T17:10:31.352Z,59.69
2018-03-27T17:12:59.850Z,59.46
2018-03-27T17:15:28.311Z,59.63
2018-03-27T17:17:56.766Z,59.79
2018-03-27T17:20:25.258Z,59.85
2018-03-27T17:22:53.747Z,60.04
2018-03-27T17:25:22.243Z,59.97
2018-03-27T17:27:50.702Z,59.92
2018-03-27T17:30:19.196Z,59.69
2018-03-27T17:32:47.662Z,59.44
2018-03-27T17:35:16.157Z,59.44
2018-03-27T17:37:44.638Z,59.75
2018-03-27T17:40:13.144Z,59.45
2018-03-27T17:42:41.646Z,59.79
2018-03-27T17:45:10.146Z,60.00
2018-03-27T17:47:38.670Z,59.86
2018-03-27T17:50:07.126Z,59.77
2018-03-27T17:52:35.594Z,59.93
2018-03-27T17:55:04.114Z,59.70
2018-03-27T17:57:32.605Z,59.77
2018-03-27T18:00:01.081Z,59.98
2018-03-27T18:02:29.618Z,59.99
2018-03-27T18:04:58.085Z,60.28
2018-03-27T18:07:26.547Z,60.22
2018-03-27T18:09:55.051Z,60.34
2018-03-27T18:12:23.533Z,60.62
2018-03-27T18:14:52.046Z,61.35
2018-03-27T18:17:20.542Z,60.53
2018-03-27T18:19:49.002Z,60.52
2018-03-27T18:22:17.508Z,60.10
2018-03-27T18:24:45.974Z,60.28
2018-03-27T18:27:14.476Z,60.54
2018-03-27T18:29:42.938Z,60.75
2018-03-27T18:32:11.442Z,60.76
2018-03-27T18:34:39.938Z,61.10
2018-03-27T18:37:08.398Z,61.32
2018-03-27T18:39:36.894Z,61.46
2018-03-27T18:42:05.388Z,62.03
2018-03-27T18:44:33.922Z,61.38
2018-03-27T18:47:02.395Z,61.41
2018-03-27T18:49:30.936Z,61.26
2018-03-27T18:51:59.423Z,61.03
2018-03-27T18:54:27.914Z,60.78
2018-03-27T18:56:56.433Z,60.26
2018-03-27T18:59:24.934Z,60.02
2018-03-27T19:01:53.394Z,59.78
2018-03-27T19:04:21.866Z,59.55
2018-03-27T19:06:50.362Z,59.24
2018-03-27T19:09:18.874Z,59.05
2018-03-27T19:11:47.382Z,59.32
2018-03-27T19:14:15.845Z,59.36
2018-03-27T19:16:44.309Z,59.50
2018-03-27T19:19:12.810Z,59.73
2018-03-27T19:21:41.314Z,59.61
2018-03-27T19:24:09.871Z,59.58
2018-03-27T19:26:38.349Z,60.01
2018-03-27T19:29:07.793Z,60.77
2018-03-27T19:31:36.334Z,61.13
2018-03-27T19:34:04.813Z,61.76
2018-03-27T19:36:33.319Z,61.67
2018-03-27T19:39:01.801Z,61.88
2018-03-27T19:41:30.337Z,62.31
2018-03-27T19:43:58.802Z,62.31
2018-03-27T19:46:27.321Z,62.44
2018-03-27T19:48:55.794Z,62.59
2018-03-27T19:51:24.294Z,62.50
2018-03-27T19:53:52.768Z,62.96
2018-03-27T19:56:21.292Z,62.92
2018-03-27T19:58:49.802Z,63.46
2018-03-27T20:01:18.266Z,63.38
2018-03-27T20:03:46.742Z,63.31
2018-03-27T20:06:15.257Z,63.44
2018-03-27T20:08:43.762Z,63.10
2018-03-27T20:11:12.246Z,62.84
2018-03-27T20:13:40.750Z,62.41
2018-03-27T20:16:09.353Z,62.67
2018-03-27T20:18:37.822Z,62.33
2018-03-27T20:21:06.384Z,61.96
2018-03-27T20:23:34.855Z,61.95
2018-03-27T20:26:03.375Z,61.92
2018-03-27T20:28:31.862Z,62.28
2018-03-27T20:31:00.376Z,61.69
2018-03-27T20:33:28.901Z,61.09
2018-03-27T20:35:57.409Z,60.68
2018-03-27T20:38:25.916Z,59.16
2018-03-27T20:40:54.430Z,59.13
2018-03-27T20:43:22.913Z,58.94
2018-03-27T20:45:51.417Z,58.47
2018-03-27T20:48:19.921Z,58.46
2018-03-27T20:50:48.378Z,58.19
2018-03-27T20:53:16.874Z,58.03
2018-03-27T20:55:45.341Z,57.54
2018-03-27T20:58:13.860Z,56.92
2018-03-27T21:00:42.380Z,56.29
2018-03-27T21:03:10.825Z,56.22
2018-03-27T21:05:39.281Z,56.60
2018-03-27T21:08:07.789Z,56.68
2018-03-27T21:10:36.253Z,57.21
2018-03-27T21:13:04.783Z,57.84
2018-03-27T21:15:33.265Z,58.27
2018-03-27T21:18:01.768Z,58.31
2018-03-27T21:23:03.729Z,58.32
2018-03-27T21:25:32.145Z,58.88
2018-03-27T21:28:00.582Z,59.75
2018-03-27T21:30:28.977Z,61.95
2018-03-27T21:32:57.425Z,62.44
2018-03-27T21:35:25.837Z,62.57
2018-03-27T21:37:54.273Z,63.89
2018-03-27T21:40:22.714Z,65.06
2018-03-27T21:42:51.165Z,65.24
2018-03-27T21:45:19.570Z,66.44
2018-03-27T21:47:48.026Z,67.37
2018-03-27T21:50:16.495Z,67.54
2018-03-27T21:52:44.961Z,69.16
2018-03-27T21:55:13.378Z,68.98
2018-03-27T21:57:41.825Z,68.92
2018-03-27T22:00:10.254Z,69.21
2018-03-27T22:02:38.677Z,69.26
2018-03-27T22:05:07.218Z,68.86
2018-03-27T22:07:35.711Z,68.54
2018-03-27T22:10:04.201Z,69.27
2018-03-27T22:12:32.694Z,69.79
2018-03-27T22:15:01.157Z,70.33
2018-03-27T22:17:29.622Z,69.83
2018-03-27T22:19:58.025Z,69.51
2018-03-27T22:22:26.425Z,69.20
2018-03-27T22:24:54.881Z,69.89
2018-03-27T22:27:23.324Z,69.94
2018-03-27T22:29:51.790Z,69.40
2018-03-27T22:32:20.230Z,69.90
2018-03-27T22:34:48.629Z,70.20
2018-03-27T22:37:17.047Z,70.46
2018-03-27T22:39:45.546Z,70.41
2018-03-27T22:42:14.031Z,70.13
2018-03-27T22:44:42.543Z,70.27
2018-03-27T22:47:11.026Z,69.78
2018-03-27T22:49:39.582Z,69.76
2018-03-27T22:52:08.054Z,70.14
2018-03-27T22:54:36.497Z,70.18
2018-03-27T22:57:04.907Z,70.05
2018-03-27T22:59:33.361Z,70.30
2018-03-27T23:02:01.855Z,70.35
2018-03-27T23:04:30.289Z,70.34
2018-03-27T23:06:58.721Z,70.27
2018-03-27T23:09:27.165Z,70.53
2018-03-27T23:11:55.625Z,70.74
2018-03-27T23:14:24.813Z,71.11
2018-03-27T23:16:53.310Z,70.96
2018-03-27T23:19:21.737Z,70.76
2018-03-27T23:21:50.245Z,70.94
2018-03-27T23:24:18.738Z,71.06
2018-03-27T23:26:47.245Z,71.29
2018-03-27T23:29:15.702Z,71.48
2018-03-27T23:31:44.199Z,71.46
2018-03-27T23:34:12.669Z,71.59
2018-03-27T23:36:41.165Z,71.40
2018-03-27T23:39:09.662Z,71.50
2018-03-27T23:41:38.222Z,71.41
2018-03-27T23:44:06.719Z,71.56
2018-03-27T23:46:35.173Z,71.71
2018-03-27T23:49:03.678Z,71.62
2018-03-27T23:51:32.142Z,71.65
2018-03-27T23:54:00.652Z,71.53
2018-03-27T23:56:29.147Z,71.91
2018-03-27T23:58:57.642Z,71.93
